x

South Hecate Strait (46185) Wave Buoy

12:00am - Thu 30th Jul 2015 All times are PDT. -7 hours from GMT.

  • Sig Wave height 3.9ft
  • Peak Period 16s
  • Wind
    7mph, 9mph gusts
  • Sea Temp 62°f
  • Air Temp 61°f
  • Sea Pressure 1023.3mb
  • South Hecate Strait
  • South Hecate Strait

More Historic Weather Station data

Upgrade to MSW Pro to gain access to the past 30 days of data for over 8000 Wavebouys and Weather Stations around the globe.

Join Pro

Comparision Forecast

View Surf forecast
   
Thu 07/30 12:00am 4ft 16s 7 9 mph 1023.3mb 62f 61f
Wed 07/29 11:00pm 4ft 16s 7 9 mph 1023.5mb 63f 61f
10:00pm 4ft 17s 2
mph
1023.6mb 63f 61f
9:00pm 3.5ft 15s 4
mph
1023.7mb 63f 61f
8:00pm 3.5ft 17s 4 7 mph 1024.2mb 64f 62f
7:00pm 3.5ft 17s 4 7 mph 1024.5mb 65f 62f
6:00pm 3.5ft 16s 4 7 mph 1024.9mb 65f 62f
5:00pm 2.5ft 17s 2
mph
1025.2mb 66f 62f
4:00pm 3ft 17s  -  2 mph 1025.5mb 67f 63f
3:00pm 3ft 16s 2
mph
1025.8mb 65f 63f
2:00pm 3.5ft 18s 2 4 mph 1025.8mb 65f 61f
1:00pm 3.5ft 17s  -  2 mph 1025.3mb 63f 64f
12:00pm 3.5ft 16s  -  2 mph 1025.1mb 62f 63f
11:00am 4ft 18s  -  2 mph 1025.1mb 62f 63f
10:00am 3.5ft 17s  -  2 mph 1024.9mb 61f 61f
8:00am 3ft 17s 4
mph
1024.5mb 61f 60f
7:00am 3.5ft 17s 7 9 mph 1024.4mb 61f 60f
6:00am 3.5ft 17s 4 7 mph 1024.2mb 61f 60f
5:00am 3.5ft 18s 7 9 mph 1024.2mb 61f 60f
4:00am 3ft 18s 9
mph
1024.1mb 61f 60f
3:00am 3.5ft 18s 7 9 mph 1023.8mb 61f 60f
2:00am 3ft 18s 9 11 mph 1023.7mb 61f 60f
1:00am 3.5ft 18s 9 11 mph 1023.5mb 61f 60f
12:00am 3.5ft 18s 11 13 mph 1023.5mb 61f 60f
Tue 07/28 11:00pm 3.5ft 18s 16 18 mph 1023.3mb 61f 60f
10:00pm 3.5ft 18s 13 18 mph 1023.1mb 61f 60f
9:00pm 3.5ft 18s 16 18 mph 1023mb 61f 60f
8:00pm 3.5ft 17s 13 16 mph 1023.2mb 61f 60f
7:00pm 3ft 18s 13 18 mph 1023.3mb 61f 60f
6:00pm 3.5ft 17s 11 13 mph 1023.3mb 61f 59f
5:00pm 3ft 17s 9 11 mph 1023.4mb 61f 59f
4:00pm 3ft 18s 4 7 mph 1023.7mb 61f 58f
3:00pm 3ft 20s 11 13 mph 1023.5mb 61f 58f
2:00pm 3.5ft 20s 13 16 mph 1023.3mb 61f 60f
1:00pm 3ft 20s 16 18 mph 1022.9mb 61f 60f
12:00pm 3.5ft 18s 13 16 mph 1022.7mb 61f 60f
11:00am 3.5ft 17s 13 16 mph 1022.6mb 61f 60f
10:00am 3.5ft 18s 13 16 mph 1022.6mb 61f 60f
9:00am 4ft 17s 13 16 mph 1022.3mb 61f 60f
8:00am 4ft 5s 18 20 mph 1021.8mb 61f 60f
7:00am 4.5ft 5s 18 22 mph 1021.6mb 61f 60f
6:00am 4.5ft 17s 18 22 mph 1021.5mb 61f 60f
5:00am 4.5ft 18s 18 22 mph 1021.6mb 61f 60f
4:00am 4.5ft 5s 18 22 mph 1021.7mb 61f 60f
3:00am 3.5ft 5s 20 27 mph 1021.7mb 61f 60f
2:00am 3.5ft 18s 16 18 mph 1021.8mb 61f 60f
1:00am 3.5ft 18s 20 25 mph 1021.5mb 61f 61f
12:00am 3.5ft 18s 20 25 mph 1021.6mb 61f 60f
Mon 07/27 11:00pm 3.5ft 18s 22 27 mph 1021.4mb 61f 61f
10:00pm 3ft 18s 18 22 mph 1021.8mb 61f 60f
9:00pm 3ft 18s 16 20 mph 1021.9mb 61f 60f
8:00pm 3ft 18s 16 18 mph 1022mb 62f 60f
7:00pm 3ft 18s 18 20 mph 1021.2mb 62f 60f
6:00pm 3ft 18s 18 22 mph 1022.2mb 62f 60f
5:00pm 3ft 18s 18 20 mph 1022.3mb 62f 60f
3:00pm 2.5ft 18s 18 20 mph 1021.5mb 62f 60f
2:00pm 2.5ft 18s 16 18 mph 1020.9mb 62f 60f
1:00pm 2.5ft 18s 16 18 mph 1020.8mb 62f 60f
12:00pm 2.5ft 18s 13 18 mph 1020.9mb 62f 60f
11:00am 2.5ft 20s 13 16 mph 1020.8mb 62f 60f
10:00am 2.5ft 20s 13 16 mph 1020.6mb 62f 60f
9:00am 2.5ft 18s 13 16 mph 1020.4mb 62f 60f
8:00am 2.5ft 20s 13 16 mph 1020.2mb 62f 60f
7:00am 2.5ft 20s 11 13 mph 1020.2mb 62f 60f
6:00am 2.5ft 20s 9 11 mph 1020.2mb 63f 60f
5:00am 2.5ft 20s 9
mph
1020.3mb 63f 60f
4:00am 2.5ft 20s 4
mph
1020.1mb 63f 60f
3:00am 2.5ft 20s 4
mph
1020.2mb 62f 60f
2:00am 2.5ft 20s 9
mph
1020.2mb 62f 60f
1:00am 2ft 20s 9 11 mph 1020.3mb 62f 61f
12:00am 2ft 20s 9 11 mph 1020mb 62f 60f
Sun 07/26 11:00pm 2ft 20s 11 13 mph 1020mb 62f 61f
10:00pm 2ft 20s 7
mph
1020mb 63f 62f
9:00pm 2ft 20s 4 7 mph 1019.9mb 63f 61f
8:00pm 2.5ft 20s 9
mph
1020mb 64f 62f
7:00pm 2.5ft 20s 9 11 mph 1020.1mb 65f 62f
6:00pm 2ft 20s 7 9 mph 1020.2mb 65f 62f
5:00pm 2ft 20s 7 9 mph 1020.2mb 65f 62f
4:00pm 2ft 20s 4 7 mph 1020.4mb 65f 61f
3:00pm 2ft 21s 2 4 mph 1020.2mb 65f 61f
2:00pm 2ft 21s  -  mph 1020.2mb 65f 60f
1:00pm 2.5ft 21s 2 4 mph 1020mb 64f 60f
12:00pm 2.5ft 21s 2 4 mph 1019.7mb 64f 60f
11:00am 2.5ft 10s 2 4 mph 1019.3mb 62f 60f
10:00am 2.5ft 21s 2 4 mph 1019.1mb 61f 59f
9:00am 2.5ft 8s 7 9 mph 1018.7mb 61f 57f